createdAt,value
2023-01-20T00:01:43.161Z,7.50
2023-01-20T00:04:15.045Z,8.70
2023-01-20T00:06:45.457Z,7.90
2023-01-20T00:09:18.671Z,6.90
2023-01-20T00:11:49.644Z,8.30
2023-01-20T00:14:21.155Z,6.50
2023-01-20T00:16:51.696Z,7.30
2023-01-20T00:19:22.327Z,5.80
2023-01-20T00:21:53.064Z,6.70
2023-01-20T00:24:23.851Z,7.00
2023-01-20T00:26:54.513Z,5.50
2023-01-20T00:29:24.941Z,6.00
2023-01-20T00:31:55.527Z,5.80
2023-01-20T00:34:25.901Z,5.80
2023-01-20T00:36:56.667Z,6.30
2023-01-20T00:39:27.403Z,4.90
2023-01-20T00:41:57.765Z,6.00
2023-01-20T00:44:28.076Z,7.00
2023-01-20T00:46:58.400Z,6.10
2023-01-20T00:49:29.103Z,6.80
2023-01-20T00:51:59.478Z,7.00
2023-01-20T00:54:30.200Z,5.90
2023-01-20T00:57:00.917Z,5.90
2023-01-20T00:59:31.394Z,4.20
2023-01-20T01:02:02.042Z,4.90
2023-01-20T01:04:32.894Z,5.50
2023-01-20T01:07:03.253Z,6.80
2023-01-20T01:09:34.242Z,6.50
2023-01-20T01:12:04.868Z,4.90
2023-01-20T01:14:35.687Z,5.50
2023-01-20T01:17:06.685Z,5.60
2023-01-20T01:19:37.150Z,5.60
2023-01-20T01:22:07.447Z,6.00
2023-01-20T01:24:38.174Z,6.80
2023-01-20T01:27:08.863Z,7.10
2023-01-20T01:29:40.157Z,5.80
2023-01-20T01:32:10.922Z,5.40
2023-01-20T01:34:41.304Z,6.10
2023-01-20T01:37:12.382Z,4.50
2023-01-20T01:39:42.674Z,4.90
2023-01-20T01:42:15.838Z,5.10
2023-01-20T01:45:17.222Z,5.30
2023-01-20T01:47:54.010Z,5.30
2023-01-20T01:50:27.330Z,4.70
2023-01-20T01:52:58.717Z,4.90
2023-01-20T01:55:32.308Z,4.40
2023-01-20T01:58:04.229Z,5.50
2023-01-20T02:00:34.905Z,6.10
2023-01-20T02:03:05.659Z,4.80
2023-01-20T02:05:38.117Z,6.30
2023-01-20T02:08:10.072Z,5.80
2023-01-20T02:10:40.548Z,6.70
2023-01-20T02:13:11.187Z,7.20
2023-01-20T02:15:47.844Z,6.30
2023-01-20T02:18:42.525Z,6.30
2023-01-20T02:25:11.940Z,5.70
2023-01-20T02:28:08.495Z,6.40
2023-01-20T02:30:53.101Z,5.80
2023-01-20T02:33:31.412Z,5.90
2023-01-20T02:36:08.001Z,6.20
2023-01-20T02:38:45.360Z,6.60
2023-01-20T02:41:23.956Z,5.80
2023-01-20T02:44:01.262Z,5.60
2023-01-20T02:46:37.407Z,5.60
2023-01-20T02:49:20.139Z,6.50
2023-01-20T02:51:55.249Z,5.20
2023-01-20T02:54:29.663Z,6.30
2023-01-20T02:57:03.259Z,5.90
2023-01-20T02:59:38.595Z,6.30
2023-01-20T03:02:15.012Z,5.90
2023-01-20T03:04:51.043Z,5.90
2023-01-20T03:07:26.663Z,6.10
2023-01-20T03:10:02.515Z,5.60
2023-01-20T03:12:37.861Z,6.00
2023-01-20T03:15:11.111Z,5.50
2023-01-20T03:17:41.880Z,6.80
2023-01-20T03:20:14.119Z,6.30
2023-01-20T03:22:44.770Z,6.10
2023-01-20T03:25:17.350Z,6.40
2023-01-20T03:27:48.294Z,6.20
2023-01-20T03:30:20.141Z,6.10
2023-01-20T03:32:52.363Z,6.40
2023-01-20T03:35:22.989Z,6.00
2023-01-20T03:37:53.361Z,6.50
2023-01-20T03:40:26.785Z,7.10
2023-01-20T03:43:01.860Z,7.50
2023-01-20T03:45:42.119Z,7.10
2023-01-20T03:48:19.845Z,6.40
2023-01-20T03:50:56.460Z,5.60
2023-01-20T03:53:37.440Z,5.30
2023-01-20T03:56:12.900Z,5.20
2023-01-20T03:58:48.625Z,6.20
2023-01-20T04:01:21.575Z,5.40
2023-01-20T04:03:55.529Z,6.00
2023-01-20T04:06:29.955Z,6.20
2023-01-20T04:09:03.990Z,6.20
2023-01-20T04:11:34.533Z,7.30
2023-01-20T04:14:05.872Z,6.30
2023-01-20T04:16:37.671Z,6.00
2023-01-20T04:19:08.788Z,7.20
2023-01-20T04:21:44.138Z,7.40
2023-01-20T04:24:23.477Z,6.00
2023-01-20T04:26:53.912Z,6.20
2023-01-20T04:29:24.318Z,5.80
2023-01-20T04:32:00.801Z,6.10
2023-01-20T04:34:31.482Z,5.10
2023-01-20T04:37:02.582Z,5.20
2023-01-20T04:39:33.035Z,5.10
2023-01-20T04:42:06.386Z,4.90
2023-01-20T04:44:37.178Z,5.20
2023-01-20T04:47:07.869Z,5.30
2023-01-20T04:49:38.361Z,4.80
2023-01-20T04:52:08.960Z,4.50
2023-01-20T04:54:39.362Z,4.80
2023-01-20T04:57:10.538Z,3.70
2023-01-20T04:59:42.437Z,5.80
2023-01-20T05:02:12.795Z,5.70
2023-01-20T05:04:43.512Z,5.50
2023-01-20T05:07:13.855Z,4.80
2023-01-20T05:09:44.615Z,5.40
2023-01-20T05:12:14.943Z,4.60
2023-01-20T05:14:46.003Z,5.50
2023-01-20T05:17:16.863Z,6.30
2023-01-20T05:19:47.212Z,6.70
2023-01-20T05:22:17.728Z,5.60
2023-01-20T05:24:48.625Z,6.80
2023-01-20T05:27:19.290Z,5.40
2023-01-20T05:29:49.773Z,6.00
2023-01-20T05:32:20.552Z,6.00
2023-01-20T05:34:51.308Z,6.20
2023-01-20T05:37:21.834Z,6.30
2023-01-20T05:39:52.704Z,6.00
2023-01-20T05:42:23.832Z,6.30
2023-01-20T05:44:54.303Z,6.10
2023-01-20T05:47:24.720Z,6.60
2023-01-20T05:49:55.355Z,5.50
2023-01-20T05:52:26.295Z,4.80
2023-01-20T05:54:56.643Z,4.60
2023-01-20T05:57:28.137Z,6.10
2023-01-20T05:59:58.517Z,6.50
2023-01-20T06:02:30.779Z,6.20
2023-01-20T06:05:01.702Z,5.30
2023-01-20T06:07:32.657Z,4.70
2023-01-20T06:10:03.584Z,4.60
2023-01-20T06:12:34.370Z,4.20
2023-01-20T06:15:05.622Z,5.00
2023-01-20T06:17:36.826Z,4.60
2023-01-20T06:20:08.282Z,3.90
2023-01-20T06:22:38.902Z,4.80
2023-01-20T06:25:10.504Z,6.00
2023-01-20T06:27:40.904Z,9.50
2023-01-20T06:30:13.714Z,7.80
2023-01-20T06:32:44.097Z,6.30
2023-01-20T06:35:14.906Z,6.40
2023-01-20T06:37:45.401Z,5.70
2023-01-20T06:40:17.051Z,5.00
2023-01-20T06:42:47.515Z,5.50
2023-01-20T06:45:18.796Z,5.00
2023-01-20T06:47:52.392Z,5.30
2023-01-20T06:50:22.858Z,4.90
2023-01-20T06:52:54.236Z,4.70
2023-01-20T06:55:24.672Z,4.80
2023-01-20T06:57:56.504Z,6.30
2023-01-20T07:00:28.986Z,6.10
2023-01-20T07:02:59.357Z,5.50
2023-01-20T07:05:29.677Z,6.40
2023-01-20T07:08:00.004Z,6.40
2023-01-20T07:10:30.880Z,6.60
2023-01-20T07:13:01.681Z,6.90
2023-01-20T07:15:32.624Z,6.20
2023-01-20T07:18:02.944Z,5.70
2023-01-20T07:20:33.601Z,6.10
2023-01-20T07:23:04.158Z,6.20
2023-01-20T07:25:34.925Z,4.90
2023-01-20T07:28:05.654Z,4.90
2023-01-20T07:30:36.825Z,5.80
2023-01-20T07:33:07.592Z,5.90
2023-01-20T07:35:38.477Z,5.40
2023-01-20T07:38:09.227Z,5.30
2023-01-20T07:40:39.812Z,5.50
2023-01-20T07:43:10.199Z,6.20
2023-01-20T07:45:40.570Z,6.40
2023-01-20T07:48:11.285Z,5.50
2023-01-20T07:50:41.694Z,5.50
2023-01-20T07:53:12.387Z,5.20
2023-01-20T07:55:42.712Z,5.00
2023-01-20T07:58:13.058Z,5.70
2023-01-20T08:00:43.820Z,5.20
2023-01-20T08:03:14.569Z,5.70
2023-01-20T08:05:45.037Z,7.20
2023-01-20T08:08:15.386Z,7.20
2023-01-20T08:10:47.734Z,6.80
2023-01-20T08:13:18.714Z,5.80
2023-01-20T08:15:49.415Z,6.10
2023-01-20T08:18:20.468Z,5.60
2023-01-20T08:20:51.067Z,6.80
2023-01-20T08:23:21.799Z,7.00
2023-01-20T08:25:58.559Z,6.00
2023-01-20T08:28:29.437Z,6.80
2023-01-20T08:31:06.265Z,7.20
2023-01-20T08:33:37.059Z,6.70
2023-01-20T08:36:11.356Z,6.90
2023-01-20T08:38:42.201Z,7.70
2023-01-20T08:41:15.293Z,6.60
2023-01-20T08:43:45.650Z,7.30
2023-01-20T08:46:18.965Z,6.40
2023-01-20T08:48:50.429Z,8.00
2023-01-20T08:51:23.497Z,7.10
2023-01-20T08:53:54.481Z,6.50
2023-01-20T08:56:25.298Z,5.90
2023-01-20T08:58:56.663Z,6.30
2023-01-20T09:01:29.406Z,6.10
2023-01-20T09:04:06.211Z,5.50
2023-01-20T09:06:43.565Z,6.30
2023-01-20T09:09:15.474Z,6.50
2023-01-20T09:11:50.877Z,5.60
2023-01-20T09:14:22.938Z,5.20
2023-01-20T09:16:56.604Z,5.70
2023-01-20T09:19:26.939Z,6.50
2023-01-20T09:21:57.825Z,5.50
2023-01-20T09:24:28.336Z,5.70
2023-01-20T09:26:58.732Z,5.90
2023-01-20T09:29:29.228Z,7.00
2023-01-20T09:32:01.964Z,6.90
2023-01-20T09:34:34.792Z,6.30
2023-01-20T09:37:19.466Z,7.20
2023-01-20T09:40:08.558Z,6.40
2023-01-20T09:43:11.510Z,6.60
2023-01-20T09:45:50.828Z,6.80
2023-01-20T09:48:51.029Z,7.30
2023-01-20T09:51:46.585Z,7.40
2023-01-20T09:54:21.300Z,7.60
2023-01-20T09:56:57.593Z,7.90
2023-01-20T09:59:33.319Z,7.10
2023-01-20T10:02:09.709Z,8.10
2023-01-20T10:04:42.947Z,7.80
2023-01-20T10:07:20.692Z,7.50
2023-01-20T10:10:00.292Z,7.70
2023-01-20T10:12:35.964Z,8.70
2023-01-20T10:15:13.195Z,8.30
2023-01-20T10:17:51.920Z,6.40
2023-01-20T10:20:28.738Z,8.20
2023-01-20T10:23:04.117Z,7.50
2023-01-20T10:25:42.717Z,6.90
2023-01-20T10:28:16.637Z,6.60
2023-01-20T10:30:47.606Z,7.20
2023-01-20T10:33:25.073Z,7.40
2023-01-20T10:35:58.038Z,7.00
2023-01-20T10:38:35.214Z,6.80
2023-01-20T10:41:16.707Z,7.70
2023-01-20T10:43:48.581Z,7.80
2023-01-20T10:46:35.120Z,6.80
2023-01-20T10:49:25.515Z,7.00
2023-01-20T10:52:12.077Z,6.50
2023-01-20T10:54:50.075Z,6.80
2023-01-20T10:59:52.025Z,5.60
2023-01-20T11:02:26.719Z,6.10
2023-01-20T11:05:00.741Z,6.80
2023-01-20T11:07:33.749Z,6.20
2023-01-20T11:10:20.025Z,6.50
2023-01-20T11:12:54.505Z,6.30
2023-01-20T11:15:28.523Z,6.80
2023-01-20T11:18:30.265Z,7.40
2023-01-20T11:21:04.589Z,6.60
2023-01-20T11:23:40.546Z,7.30
2023-01-20T11:26:21.635Z,6.80
2023-01-20T11:28:55.406Z,6.70
2023-01-20T11:31:39.178Z,7.10
2023-01-20T11:34:24.260Z,6.80
2023-01-20T11:37:20.031Z,6.80
2023-01-20T11:40:03.005Z,7.00
2023-01-20T11:42:45.006Z,6.90
2023-01-20T11:45:28.851Z,7.40
2023-01-20T11:48:17.350Z,6.70
2023-01-20T11:50:50.768Z,6.90
2023-01-20T11:53:26.514Z,7.60
2023-01-20T11:56:00.106Z,6.90
2023-01-20T11:58:33.187Z,6.10
2023-01-20T12:01:06.597Z,5.70
2023-01-20T12:04:17.238Z,6.70
2023-01-20T12:06:54.764Z,5.60
2023-01-20T12:09:30.951Z,5.80
2023-01-20T12:12:06.472Z,6.10
2023-01-20T12:14:41.924Z,7.40
2023-01-20T12:17:27.310Z,8.50
2023-01-20T12:20:05.196Z,6.60
2023-01-20T12:22:45.960Z,6.20
2023-01-20T12:25:22.256Z,5.70
2023-01-20T12:27:57.782Z,6.60
2023-01-20T12:30:46.645Z,7.30
2023-01-20T12:33:23.641Z,5.60
2023-01-20T12:36:31.141Z,6.40
2023-01-20T12:39:21.871Z,5.80
2023-01-20T12:42:13.559Z,5.90
2023-01-20T12:44:50.752Z,6.10
2023-01-20T12:47:35.494Z,5.20
2023-01-20T12:50:22.310Z,6.20
2023-01-20T12:53:11.696Z,5.30
2023-01-20T12:55:55.828Z,5.90
2023-01-20T12:58:42.212Z,6.40
2023-01-20T13:01:32.392Z,6.10
2023-01-20T13:04:24.831Z,5.00
2023-01-20T13:07:15.972Z,5.80
2023-01-20T13:10:01.244Z,6.20
2023-01-20T13:12:44.974Z,6.10
2023-01-20T13:15:23.997Z,6.20
2023-01-20T13:18:21.804Z,6.50
2023-01-20T13:23:26.622Z,5.40
2023-01-20T13:25:59.293Z,6.20
2023-01-20T13:28:31.980Z,7.90
2023-01-20T13:31:23.533Z,7.60
2023-01-20T13:33:54.125Z,6.20
2023-01-20T13:36:25.428Z,6.00
2023-01-20T13:39:41.677Z,6.60
2023-01-20T13:42:47.000Z,5.20
2023-01-20T13:45:27.562Z,7.00
2023-01-20T13:48:03.740Z,6.50
2023-01-20T13:50:36.348Z,5.60
2023-01-20T13:53:28.050Z,5.90
2023-01-20T13:56:00.706Z,6.40
2023-01-20T13:58:32.807Z,7.70
2023-01-20T14:01:05.452Z,6.10
2023-01-20T14:03:37.248Z,6.60
2023-01-20T14:06:20.684Z,5.90
2023-01-20T14:08:52.530Z,5.60
2023-01-20T14:11:24.834Z,5.80
2023-01-20T14:13:57.358Z,5.30
2023-01-20T14:16:30.791Z,5.60
2023-01-20T14:19:06.143Z,6.00
2023-01-20T14:21:42.958Z,6.10
2023-01-20T14:24:29.185Z,5.90
2023-01-20T14:27:12.791Z,5.80
2023-01-20T14:29:43.541Z,5.20
2023-01-20T14:32:23.136Z,5.60
2023-01-20T14:34:54.227Z,5.30
2023-01-20T14:37:30.971Z,6.10
2023-01-20T14:40:06.861Z,5.20
2023-01-20T14:42:38.610Z,5.40
2023-01-20T14:45:22.300Z,4.70
2023-01-20T14:47:53.286Z,5.40
2023-01-20T14:50:24.293Z,6.00
2023-01-20T14:52:54.912Z,5.90
2023-01-20T14:55:34.188Z,5.60
2023-01-20T14:58:10.803Z,5.30
2023-01-20T15:00:45.446Z,5.80
2023-01-20T15:03:20.804Z,6.00
2023-01-20T15:05:59.162Z,5.50
2023-01-20T15:08:50.828Z,4.80
2023-01-20T15:11:32.591Z,4.50
2023-01-20T15:14:12.638Z,5.60
2023-01-20T15:16:53.472Z,4.40
2023-01-20T15:19:35.556Z,4.90
2023-01-20T15:22:20.920Z,5.20
2023-01-20T15:24:51.834Z,5.40
2023-01-20T15:27:28.965Z,5.40
2023-01-20T15:30:04.952Z,4.60
2023-01-20T15:32:37.520Z,4.30
2023-01-20T15:35:12.692Z,5.00
2023-01-20T15:37:43.607Z,4.50
2023-01-20T15:40:20.169Z,4.60
2023-01-20T15:42:52.421Z,4.00
2023-01-20T15:45:25.792Z,4.30
2023-01-20T15:47:58.088Z,5.10
2023-01-20T15:50:32.883Z,7.20
2023-01-20T15:53:06.363Z,6.60
2023-01-20T15:55:41.819Z,7.10
2023-01-20T15:58:23.709Z,6.40
2023-01-20T16:00:55.070Z,5.00
2023-01-20T16:03:26.395Z,6.20
2023-01-20T16:05:58.363Z,7.00
2023-01-20T16:08:36.003Z,6.20
2023-01-20T16:11:07.781Z,7.60
2023-01-20T16:13:47.841Z,6.90
2023-01-20T16:16:20.572Z,6.40
2023-01-20T16:18:51.887Z,6.50
2023-01-20T16:21:22.838Z,5.50
2023-01-20T16:23:53.728Z,6.00
2023-01-20T16:26:26.057Z,6.00
2023-01-20T16:28:57.737Z,5.50
2023-01-20T16:31:39.152Z,6.10
2023-01-20T16:34:10.169Z,5.70
2023-01-20T16:36:40.473Z,6.10
2023-01-20T16:39:12.875Z,6.40
2023-01-20T16:41:49.743Z,6.70
2023-01-20T16:44:20.150Z,5.30
2023-01-20T16:46:50.869Z,5.20
2023-01-20T16:49:24.394Z,6.50
2023-01-20T16:51:54.750Z,7.10
2023-01-20T16:54:25.113Z,7.20
2023-01-20T16:56:55.451Z,6.90
2023-01-20T16:59:26.375Z,8.40
2023-01-20T17:01:56.722Z,9.40
2023-01-20T17:04:29.279Z,9.50
2023-01-20T17:07:00.076Z,7.60
2023-01-20T17:09:30.449Z,6.20
2023-01-20T17:12:00.818Z,8.80
2023-01-20T17:14:31.188Z,9.20
2023-01-20T17:17:01.550Z,6.10
2023-01-20T17:19:31.964Z,5.60
2023-01-20T17:22:02.378Z,5.90
2023-01-20T17:24:33.572Z,7.20
2023-01-20T17:27:04.346Z,6.30
2023-01-20T17:29:36.008Z,6.00
2023-01-20T17:32:07.036Z,7.00
2023-01-20T17:34:37.384Z,7.80
2023-01-20T17:37:09.695Z,6.60
2023-01-20T17:39:40.775Z,7.20
2023-01-20T17:42:11.244Z,6.60
2023-01-20T17:44:41.572Z,6.30
2023-01-20T17:47:11.943Z,5.50
2023-01-20T17:49:42.660Z,6.40
2023-01-20T17:52:13.639Z,6.40
2023-01-20T17:54:44.441Z,7.70
2023-01-20T17:57:14.813Z,7.30
2023-01-20T17:59:45.444Z,7.00
2023-01-20T18:02:18.558Z,7.20
2023-01-20T18:04:49.067Z,6.40
2023-01-20T18:07:20.131Z,7.60
2023-01-20T18:09:50.823Z,8.70
2023-01-20T18:12:21.747Z,6.30
2023-01-20T18:14:54.434Z,8.30
2023-01-20T18:17:25.180Z,7.70
2023-01-20T18:19:56.202Z,8.00
2023-01-20T18:22:26.765Z,7.00
2023-01-20T18:24:57.692Z,6.50
2023-01-20T18:27:28.058Z,6.80
2023-01-20T18:29:58.863Z,6.60
2023-01-20T18:32:29.367Z,7.50
2023-01-20T18:35:00.095Z,7.10
2023-01-20T18:37:31.687Z,7.40
2023-01-20T18:40:04.720Z,7.20
2023-01-20T18:42:35.159Z,8.00
2023-01-20T18:45:07.353Z,7.20
2023-01-20T18:47:37.712Z,6.40
2023-01-20T18:50:09.340Z,7.50
2023-01-20T18:52:40.337Z,8.10
2023-01-20T18:55:11.757Z,12.80
2023-01-20T18:57:42.770Z,9.20
2023-01-20T19:00:15.379Z,7.10
2023-01-20T19:02:45.895Z,6.50
2023-01-20T19:05:16.884Z,6.40
2023-01-20T19:07:51.486Z,5.40
2023-01-20T19:10:22.114Z,6.40
2023-01-20T19:12:53.381Z,7.20
2023-01-20T19:15:23.825Z,7.40
2023-01-20T19:17:54.763Z,6.90
2023-01-20T19:20:25.423Z,7.10
2023-01-20T19:22:56.299Z,6.80
2023-01-20T19:25:31.455Z,6.60
2023-01-20T19:28:04.618Z,6.50
2023-01-20T19:30:36.124Z,6.00
2023-01-20T19:33:06.871Z,5.70
2023-01-20T19:35:37.466Z,8.10
2023-01-20T19:38:07.878Z,6.10
2023-01-20T19:40:41.100Z,6.50
2023-01-20T19:43:11.436Z,6.80
2023-01-20T19:45:45.695Z,7.20
2023-01-20T19:48:16.971Z,6.90
2023-01-20T19:50:47.678Z,6.60
2023-01-20T19:53:18.153Z,7.80
2023-01-20T19:55:49.172Z,9.40
2023-01-20T19:58:20.043Z,7.70
2023-01-20T20:00:50.454Z,6.40
2023-01-20T20:03:21.182Z,7.40
2023-01-20T20:05:52.080Z,7.80
2023-01-20T20:08:23.178Z,6.40
2023-01-20T20:10:53.536Z,8.40
2023-01-20T20:13:24.443Z,6.90
2023-01-20T20:16:02.656Z,6.90
2023-01-20T20:18:33.161Z,8.30
2023-01-20T20:21:04.741Z,7.50
2023-01-20T20:23:35.670Z,8.80
2023-01-20T20:26:06.121Z,6.50
2023-01-20T20:28:36.897Z,6.90
2023-01-20T20:31:09.225Z,7.30
2023-01-20T20:33:39.972Z,9.30
2023-01-20T20:36:11.956Z,8.10
2023-01-20T20:38:42.461Z,7.30
2023-01-20T20:41:12.969Z,9.20
2023-01-20T20:43:46.031Z,7.90
2023-01-20T20:46:17.983Z,8.60
2023-01-20T20:48:48.449Z,7.80
2023-01-20T20:51:19.764Z,8.50
2023-01-20T20:53:50.458Z,9.10
2023-01-20T20:56:20.737Z,6.70
2023-01-20T20:59:00.842Z,6.70
2023-01-20T21:01:34.674Z,7.30
2023-01-20T21:04:05.807Z,7.40
2023-01-20T21:06:36.624Z,6.30
2023-01-20T21:09:07.105Z,6.50
2023-01-20T21:11:38.596Z,6.50
2023-01-20T21:14:09.095Z,6.30
2023-01-20T21:16:40.034Z,7.10
2023-01-20T21:19:10.450Z,8.20
2023-01-20T21:21:41.615Z,7.60
2023-01-20T21:24:14.633Z,7.20
2023-01-20T21:26:45.544Z,8.50
2023-01-20T21:29:16.408Z,9.90
2023-01-20T21:31:50.592Z,9.40
2023-01-20T21:34:21.946Z,10.40
2023-01-20T21:36:52.716Z,9.80
2023-01-20T21:39:23.501Z,8.80
2023-01-20T21:41:54.479Z,9.90
2023-01-20T21:44:33.187Z,9.70
2023-01-20T21:47:04.980Z,7.40
2023-01-20T21:49:53.315Z,9.30
2023-01-20T21:52:44.242Z,10.10
2023-01-20T21:55:19.332Z,7.50
2023-01-20T21:57:51.487Z,6.50
2023-01-20T22:00:22.961Z,10.00
2023-01-20T22:02:53.798Z,8.60
2023-01-20T22:05:24.380Z,9.00
2023-01-20T22:07:54.979Z,7.80
2023-01-20T22:10:26.370Z,9.50
2023-01-20T22:12:57.471Z,9.20
2023-01-20T22:15:27.854Z,9.50
2023-01-20T22:17:59.055Z,9.00
2023-01-20T22:20:30.236Z,7.30
2023-01-20T22:23:00.717Z,8.80
2023-01-20T22:25:31.483Z,9.80
2023-01-20T22:28:02.037Z,9.20
2023-01-20T22:30:33.499Z,7.90
2023-01-20T22:33:04.375Z,8.70
2023-01-20T22:35:34.905Z,7.60
2023-01-20T22:38:05.448Z,9.80
2023-01-20T22:40:35.867Z,10.00
2023-01-20T22:43:06.988Z,7.20
2023-01-20T22:45:37.394Z,8.10
2023-01-20T22:48:08.323Z,7.90
2023-01-20T22:50:38.733Z,8.50
2023-01-20T22:53:09.038Z,9.30
2023-01-20T22:55:49.017Z,9.60
2023-01-20T22:58:29.781Z,10.20
2023-01-20T23:01:00.494Z,9.70
2023-01-20T23:03:31.378Z,11.40
2023-01-20T23:06:02.684Z,9.70
2023-01-20T23:08:33.312Z,8.80
2023-01-20T23:11:05.798Z,8.50
2023-01-20T23:13:36.571Z,11.30
2023-01-20T23:16:10.069Z,10.60
2023-01-20T23:18:41.040Z,10.70
2023-01-20T23:21:11.590Z,8.30
2023-01-20T23:23:42.319Z,11.00
2023-01-20T23:26:16.455Z,7.70
2023-01-20T23:28:50.381Z,9.50
2023-01-20T23:31:21.727Z,8.20
2023-01-20T23:33:54.361Z,8.50
2023-01-20T23:36:26.979Z,9.00
2023-01-20T23:38:58.422Z,9.80
2023-01-20T23:41:29.525Z,11.00
2023-01-20T23:44:00.394Z,10.80
2023-01-20T23:46:30.732Z,12.70
2023-01-20T23:49:01.438Z,13.20
2023-01-20T23:51:31.907Z,11.50
2023-01-20T23:54:05.297Z,12.10
2023-01-20T23:56:36.088Z,8.90
2023-01-20T23:59:06.757Z,8.00
